sensor_id;sensor_type;location;lat;lon;timestamp;pressure;altitude;pressure_sealevel;temperature;humidity
81990;BME280;71485;51.638;-0.182;2023-07-28T00:01:52;99483.72;;;26.46;36.08
81990;BME280;71485;51.638;-0.182;2023-07-28T00:04:17;99483.53;;;25.96;36.08
81990;BME280;71485;51.638;-0.182;2023-07-28T00:11:34;99480.02;;;26.32;36.20
81990;BME280;71485;51.638;-0.182;2023-07-28T00:13:59;99478.31;;;26.07;36.20
81990;BME280;71485;51.638;-0.182;2023-07-28T00:16:25;99478.14;;;26.26;36.27
81990;BME280;71485;51.638;-0.182;2023-07-28T00:18:50;99480.34;;;25.80;36.26
81990;BME280;71485;51.638;-0.182;2023-07-28T00:21:16;99481.02;;;26.39;36.09
81990;BME280;71485;51.638;-0.182;2023-07-28T00:23:41;99483.39;;;26.14;36.08
81990;BME280;71485;51.638;-0.182;2023-07-28T00:26:08;99480.59;;;26.10;36.13
81990;BME280;71485;51.638;-0.182;2023-07-28T00:28:34;99479.35;;;26.09;36.14
81990;BME280;71485;51.638;-0.182;2023-07-28T00:33:25;99483.43;;;25.91;36.01
81990;BME280;71485;51.638;-0.182;2023-07-28T00:35:49;99480.54;;;26.36;36.00
81990;BME280;71485;51.638;-0.182;2023-07-28T00:38:16;99481.59;;;26.35;35.98
81990;BME280;71485;51.638;-0.182;2023-07-28T00:40:40;99483.26;;;25.90;35.93
81990;BME280;71485;51.638;-0.182;2023-07-28T00:43:07;99482.80;;;26.10;35.93
81990;BME280;71485;51.638;-0.182;2023-07-28T00:45:33;99481.85;;;26.08;35.95
81990;BME280;71485;51.638;-0.182;2023-07-28T00:47:57;99484.77;;;25.80;35.99
81990;BME280;71485;51.638;-0.182;2023-07-28T00:50:25;99487.38;;;26.28;35.95
81990;BME280;71485;51.638;-0.182;2023-07-28T00:52:48;99489.25;;;26.20;36.05
81990;BME280;71485;51.638;-0.182;2023-07-28T00:55:13;99491.09;;;26.22;35.98
81990;BME280;71485;51.638;-0.182;2023-07-28T00:57:41;99493.32;;;25.89;36.07
81990;BME280;71485;51.638;-0.182;2023-07-28T01:00:06;99493.18;;;25.83;36.13
81990;BME280;71485;51.638;-0.182;2023-07-28T01:02:30;99493.05;;;26.21;35.93
81990;BME280;71485;51.638;-0.182;2023-07-28T01:04:55;99491.38;;;26.19;35.92
81990;BME280;71485;51.638;-0.182;2023-07-28T01:09:51;99487.68;;;26.21;35.85
81990;BME280;71485;51.638;-0.182;2023-07-28T01:12:12;99487.03;;;26.13;35.95
81990;BME280;71485;51.638;-0.182;2023-07-28T01:14:38;99487.80;;;26.34;35.97
81990;BME280;71485;51.638;-0.182;2023-07-28T01:19:29;99489.13;;;26.20;35.80
81990;BME280;71485;51.638;-0.182;2023-07-28T01:24:25;99488.64;;;26.26;35.70
81990;BME280;71485;51.638;-0.182;2023-07-28T01:26:47;99489.24;;;26.26;35.70
81990;BME280;71485;51.638;-0.182;2023-07-28T01:29:12;99489.32;;;26.13;35.84
81990;BME280;71485;51.638;-0.182;2023-07-28T01:31:37;99490.05;;;26.09;35.93
81990;BME280;71485;51.638;-0.182;2023-07-28T01:36:28;99499.14;;;26.18;35.78
81990;BME280;71485;51.638;-0.182;2023-07-28T01:41:19;99496.80;;;26.17;35.78
81990;BME280;71485;51.638;-0.182;2023-07-28T01:43:45;99498.07;;;26.32;35.90
81990;BME280;71485;51.638;-0.182;2023-07-28T01:46:10;99498.12;;;26.06;35.93
81990;BME280;71485;51.638;-0.182;2023-07-28T01:48:37;99493.47;;;26.31;35.89
81990;BME280;71485;51.638;-0.182;2023-07-28T01:51:01;99492.11;;;25.84;35.84
81990;BME280;71485;51.638;-0.182;2023-07-28T01:53:26;99494.16;;;26.13;35.80
81990;BME280;71485;51.638;-0.182;2023-07-28T01:55:52;99493.18;;;26.38;35.73
81990;BME280;71485;51.638;-0.182;2023-07-28T02:00:44;99496.64;;;26.11;35.76
81990;BME280;71485;51.638;-0.182;2023-07-28T02:03:08;99495.16;;;26.09;35.75
81990;BME280;71485;51.638;-0.182;2023-07-28T02:05:34;99492.83;;;26.08;35.75
81990;BME280;71485;51.638;-0.182;2023-07-28T02:10:30;99487.63;;;26.13;35.62
81990;BME280;71485;51.638;-0.182;2023-07-28T02:12:50;99486.90;;;26.17;35.54
81990;BME280;71485;51.638;-0.182;2023-07-28T02:15:16;99482.43;;;26.03;35.71
81990;BME280;71485;51.638;-0.182;2023-07-28T02:17:42;99484.94;;;26.06;35.66
81990;BME280;71485;51.638;-0.182;2023-07-28T02:22:33;99485.00;;;26.02;35.64
81990;BME280;71485;51.638;-0.182;2023-07-28T02:24:58;99481.68;;;26.02;35.61
81990;BME280;71485;51.638;-0.182;2023-07-28T02:27:24;99480.00;;;25.97;35.69
81990;BME280;71485;51.638;-0.182;2023-07-28T02:29:50;99480.71;;;26.21;35.68
81990;BME280;71485;51.638;-0.182;2023-07-28T02:32:15;99478.44;;;25.94;35.71
81990;BME280;71485;51.638;-0.182;2023-07-28T02:34:40;99478.08;;;26.39;35.72
81990;BME280;71485;51.638;-0.182;2023-07-28T02:37:07;99477.59;;;25.92;35.70
81990;BME280;71485;51.638;-0.182;2023-07-28T02:39:31;99479.01;;;25.90;35.72
81990;BME280;71485;51.638;-0.182;2023-07-28T02:41:59;99476.68;;;26.11;35.74
81990;BME280;71485;51.638;-0.182;2023-07-28T02:44:22;99477.66;;;26.11;35.73
81990;BME280;71485;51.638;-0.182;2023-07-28T02:46:50;99475.98;;;25.87;35.73
81990;BME280;71485;51.638;-0.182;2023-07-28T02:49:14;99477.11;;;25.87;35.74
81990;BME280;71485;51.638;-0.182;2023-07-28T02:51:43;99478.44;;;25.80;35.83
81990;BME280;71485;51.638;-0.182;2023-07-28T02:54:05;99477.37;;;25.85;35.72
81990;BME280;71485;51.638;-0.182;2023-07-28T02:56:30;99472.37;;;25.95;35.90
81990;BME280;71485;51.638;-0.182;2023-07-28T03:01:23;99482.52;;;26.05;35.71
81990;BME280;71485;51.638;-0.182;2023-07-28T03:03:47;99483.64;;;26.43;35.57
81990;BME280;71485;51.638;-0.182;2023-07-28T03:06:13;99483.87;;;26.47;35.42
81990;BME280;71485;51.638;-0.182;2023-07-28T03:08:38;99481.96;;;26.33;35.19
81990;BME280;71485;51.638;-0.182;2023-07-28T03:11:04;99478.05;;;26.41;35.06
81990;BME280;71485;51.638;-0.182;2023-07-28T03:13:29;99479.23;;;26.56;35.21
81990;BME280;71485;51.638;-0.182;2023-07-28T03:15:55;99478.38;;;26.62;35.19
81990;BME280;71485;51.638;-0.182;2023-07-28T03:18:20;99477.02;;;26.67;34.95
81990;BME280;71485;51.638;-0.182;2023-07-28T03:20:46;99479.04;;;26.69;35.15
81990;BME280;71485;51.638;-0.182;2023-07-28T03:23:16;99483.71;;;26.68;34.86
81990;BME280;71485;51.638;-0.182;2023-07-28T03:25:41;99484.97;;;26.46;35.10
81990;BME280;71485;51.638;-0.182;2023-07-28T03:28:02;99487.99;;;26.49;34.70
81990;BME280;71485;51.638;-0.182;2023-07-28T03:30:28;99490.24;;;26.51;34.94
81990;BME280;71485;51.638;-0.182;2023-07-28T03:32:53;99492.84;;;26.53;34.72
81990;BME280;71485;51.638;-0.182;2023-07-28T03:35:19;99494.33;;;26.52;34.59
81990;BME280;71485;51.638;-0.182;2023-07-28T03:37:48;99492.69;;;26.55;35.10
81990;BME280;71485;51.638;-0.182;2023-07-28T03:40:11;99495.52;;;26.59;34.62
81990;BME280;71485;51.638;-0.182;2023-07-28T03:42:37;99491.76;;;26.59;34.67
81990;BME280;71485;51.638;-0.182;2023-07-28T03:45:01;99494.50;;;26.62;34.93
81990;BME280;71485;51.638;-0.182;2023-07-28T03:47:26;99493.87;;;26.86;34.52
81990;BME280;71485;51.638;-0.182;2023-07-28T03:49:53;99495.55;;;26.63;34.97
81990;BME280;71485;51.638;-0.182;2023-07-28T03:52:18;99493.48;;;26.87;34.43
81990;BME280;71485;51.638;-0.182;2023-07-28T03:54:43;99493.67;;;26.62;34.85
81990;BME280;71485;51.638;-0.182;2023-07-28T03:57:10;99491.87;;;26.38;34.49
81990;BME280;71485;51.638;-0.182;2023-07-28T03:59:36;99487.30;;;26.78;34.34
81990;BME280;71485;51.638;-0.182;2023-07-28T04:02:00;99490.24;;;26.45;34.57
81990;BME280;71485;51.638;-0.182;2023-07-28T04:04:25;99491.08;;;26.35;34.56
81990;BME280;71485;51.638;-0.182;2023-07-28T04:06:51;99491.99;;;26.33;34.52
81990;BME280;71485;51.638;-0.182;2023-07-28T04:09:16;99491.66;;;26.56;34.59
81990;BME280;71485;51.638;-0.182;2023-07-28T04:11:42;99497.15;;;26.07;34.54
81990;BME280;71485;51.638;-0.182;2023-07-28T04:14:07;99499.71;;;26.19;34.57
81990;BME280;71485;51.638;-0.182;2023-07-28T04:16:33;99505.84;;;26.48;34.57
81990;BME280;71485;51.638;-0.182;2023-07-28T04:18:59;99505.53;;;26.40;34.76
81990;BME280;71485;51.638;-0.182;2023-07-28T04:21:24;99508.86;;;26.03;34.74
81990;BME280;71485;51.638;-0.182;2023-07-28T04:23:49;99508.81;;;26.02;35.04
81990;BME280;71485;51.638;-0.182;2023-07-28T04:26:16;99511.94;;;25.88;35.24
81990;BME280;71485;51.638;-0.182;2023-07-28T04:28:41;99514.21;;;25.70;35.15
81990;BME280;71485;51.638;-0.182;2023-07-28T04:31:06;99512.83;;;25.94;35.15
81990;BME280;71485;51.638;-0.182;2023-07-28T04:33:32;99515.22;;;26.13;35.19
81990;BME280;71485;51.638;-0.182;2023-07-28T04:35:57;99512.23;;;25.62;35.23
81990;BME280;71485;51.638;-0.182;2023-07-28T04:38:23;99515.96;;;25.88;35.17
81990;BME280;71485;51.638;-0.182;2023-07-28T04:40:48;99520.28;;;25.87;35.19
81990;BME280;71485;51.638;-0.182;2023-07-28T04:43:14;99523.90;;;25.78;35.30
81990;BME280;71485;51.638;-0.182;2023-07-28T04:45:40;99526.16;;;25.77;35.31
81990;BME280;71485;51.638;-0.182;2023-07-28T04:48:05;99526.44;;;26.04;35.27
81990;BME280;71485;51.638;-0.182;2023-07-28T04:50:31;99526.04;;;25.88;35.15
81990;BME280;71485;51.638;-0.182;2023-07-28T04:52:56;99527.27;;;25.75;35.28
81990;BME280;71485;51.638;-0.182;2023-07-28T04:55:21;99526.36;;;25.75;35.29
81990;BME280;71485;51.638;-0.182;2023-07-28T04:57:48;99524.01;;;26.00;35.24
81990;BME280;71485;51.638;-0.182;2023-07-28T05:00:14;99524.47;;;25.93;35.34
81990;BME280;71485;51.638;-0.182;2023-07-28T05:02:38;99528.15;;;26.03;35.21
81990;BME280;71485;51.638;-0.182;2023-07-28T05:05:04;99528.56;;;25.71;35.29
81990;BME280;71485;51.638;-0.182;2023-07-28T05:07:29;99526.27;;;25.91;35.36
81990;BME280;71485;51.638;-0.182;2023-07-28T05:09:55;99525.24;;;25.87;35.41
81990;BME280;71485;51.638;-0.182;2023-07-28T05:12:20;99528.19;;;25.72;35.29
81990;BME280;71485;51.638;-0.182;2023-07-28T05:14:46;99527.56;;;25.92;35.33
81990;BME280;71485;51.638;-0.182;2023-07-28T05:17:12;99528.06;;;25.95;35.28
81990;BME280;71485;51.638;-0.182;2023-07-28T05:19:38;99525.06;;;26.01;35.20
81990;BME280;71485;51.638;-0.182;2023-07-28T05:22:02;99523.51;;;26.01;35.18
81990;BME280;71485;51.638;-0.182;2023-07-28T05:24:28;99526.43;;;25.85;35.39
81990;BME280;71485;51.638;-0.182;2023-07-28T05:26:54;99529.18;;;25.85;35.40
81990;BME280;71485;51.638;-0.182;2023-07-28T05:29:19;99532.09;;;25.80;35.47
81990;BME280;71485;51.638;-0.182;2023-07-28T05:31:44;99532.06;;;25.88;35.40
81990;BME280;71485;51.638;-0.182;2023-07-28T05:34:10;99533.70;;;25.59;35.48
81990;BME280;71485;51.638;-0.182;2023-07-28T05:36:36;99532.91;;;25.56;35.51
81990;BME280;71485;51.638;-0.182;2023-07-28T05:39:02;99532.41;;;25.77;35.56
81990;BME280;71485;51.638;-0.182;2023-07-28T05:41:31;99531.50;;;25.83;35.50
81990;BME280;71485;51.638;-0.182;2023-07-28T05:43:52;99531.17;;;25.80;35.50
81990;BME280;71485;51.638;-0.182;2023-07-28T05:46:18;99530.95;;;25.57;35.48
81990;BME280;71485;51.638;-0.182;2023-07-28T05:48:44;99533.06;;;25.36;35.46
81990;BME280;71485;51.638;-0.182;2023-07-28T05:51:10;99531.77;;;25.87;35.43
81990;BME280;71485;51.638;-0.182;2023-07-28T05:53:34;99532.79;;;25.87;35.44
81990;BME280;71485;51.638;-0.182;2023-07-28T05:55:59;99535.27;;;25.65;35.40
81990;BME280;71485;51.638;-0.182;2023-07-28T05:58:25;99541.02;;;25.66;35.38
81990;BME280;71485;51.638;-0.182;2023-07-28T06:00:51;99541.77;;;25.83;35.47
81990;BME280;71485;51.638;-0.182;2023-07-28T06:03:16;99545.83;;;25.83;35.52
81990;BME280;71485;51.638;-0.182;2023-07-28T06:05:42;99545.70;;;25.76;35.59
81990;BME280;71485;51.638;-0.182;2023-07-28T06:08:08;99550.87;;;25.79;35.59
81990;BME280;71485;51.638;-0.182;2023-07-28T06:10:33;99552.52;;;25.62;35.44
81990;BME280;71485;51.638;-0.182;2023-07-28T06:12:58;99552.56;;;25.61;35.46
81990;BME280;71485;51.638;-0.182;2023-07-28T06:15:24;99554.20;;;25.62;35.42
81990;BME280;71485;51.638;-0.182;2023-07-28T06:17:56;99555.07;;;25.91;35.38
81990;BME280;71485;51.638;-0.182;2023-07-28T06:20:15;99555.21;;;25.87;35.65
81990;BME280;71485;51.638;-0.182;2023-07-28T06:22:41;99554.69;;;25.91;35.87
81990;BME280;71485;51.638;-0.182;2023-07-28T06:25:07;99552.92;;;25.68;35.96
81990;BME280;71485;51.638;-0.182;2023-07-28T06:27:32;99555.29;;;25.89;36.14
81990;BME280;71485;51.638;-0.182;2023-07-28T06:29:57;99550.58;;;25.68;35.94
81990;BME280;71485;51.638;-0.182;2023-07-28T06:32:22;99550.18;;;26.00;35.89
81990;BME280;71485;51.638;-0.182;2023-07-28T06:34:47;99549.86;;;25.80;35.74
81990;BME280;71485;51.638;-0.182;2023-07-28T06:37:13;99548.23;;;25.83;35.61
81990;BME280;71485;51.638;-0.182;2023-07-28T06:39:40;99554.21;;;25.73;35.73
81990;BME280;71485;51.638;-0.182;2023-07-28T06:42:05;99553.31;;;25.53;35.65
81990;BME280;71485;51.638;-0.182;2023-07-28T06:44:29;99553.48;;;25.56;35.63
81990;BME280;71485;51.638;-0.182;2023-07-28T06:46:55;99553.39;;;25.79;35.61
81990;BME280;71485;51.638;-0.182;2023-07-28T06:49:22;99553.25;;;25.90;35.45
81990;BME280;71485;51.638;-0.182;2023-07-28T06:51:46;99551.60;;;26.17;35.38
81990;BME280;71485;51.638;-0.182;2023-07-28T06:54:11;99552.71;;;25.92;35.39
81990;BME280;71485;51.638;-0.182;2023-07-28T06:56:37;99553.74;;;25.99;35.31
81990;BME280;71485;51.638;-0.182;2023-07-28T06:59:05;99554.96;;;25.68;35.41
81990;BME280;71485;51.638;-0.182;2023-07-28T07:01:27;99554.45;;;26.01;35.30
81990;BME280;71485;51.638;-0.182;2023-07-28T07:03:53;99554.83;;;25.97;35.36
81990;BME280;71485;51.638;-0.182;2023-07-28T07:06:18;99556.04;;;25.76;35.32
81990;BME280;71485;51.638;-0.182;2023-07-28T07:08:44;99555.90;;;25.96;35.37
81990;BME280;71485;51.638;-0.182;2023-07-28T07:11:09;99558.71;;;26.00;35.38
81990;BME280;71485;51.638;-0.182;2023-07-28T07:13:38;99556.50;;;25.90;35.62
81990;BME280;71485;51.638;-0.182;2023-07-28T07:16:00;99562.51;;;26.12;35.36
81990;BME280;71485;51.638;-0.182;2023-07-28T07:18:26;99568.06;;;26.20;35.27
81990;BME280;71485;51.638;-0.182;2023-07-28T07:20:51;99573.55;;;26.28;35.13
81990;BME280;71485;51.638;-0.182;2023-07-28T07:23:17;99574.47;;;26.33;35.07
81990;BME280;71485;51.638;-0.182;2023-07-28T07:25:44;99575.10;;;26.37;34.98
81990;BME280;71485;51.638;-0.182;2023-07-28T07:28:08;99572.26;;;26.43;34.91
81990;BME280;71485;51.638;-0.182;2023-07-28T07:30:34;99574.96;;;26.13;35.11
81990;BME280;71485;51.638;-0.182;2023-07-28T07:33:01;99575.03;;;26.52;35.21
81990;BME280;71485;51.638;-0.182;2023-07-28T07:35:25;99582.94;;;26.33;35.17
81990;BME280;71485;51.638;-0.182;2023-07-28T07:37:52;99582.06;;;26.37;35.07
81990;BME280;71485;51.638;-0.182;2023-07-28T07:40:16;99581.41;;;26.38;35.14
81990;BME280;71485;51.638;-0.182;2023-07-28T07:42:45;99582.34;;;26.57;35.14
81990;BME280;71485;51.638;-0.182;2023-07-28T07:45:08;99584.19;;;26.59;35.19
81990;BME280;71485;51.638;-0.182;2023-07-28T07:47:34;99585.68;;;26.60;35.19
81990;BME280;71485;51.638;-0.182;2023-07-28T07:49:58;99587.82;;;26.59;35.17
81990;BME280;71485;51.638;-0.182;2023-07-28T07:52:24;99587.40;;;26.13;35.12
81990;BME280;71485;51.638;-0.182;2023-07-28T07:54:50;99586.34;;;26.46;34.99
81990;BME280;71485;51.638;-0.182;2023-07-28T07:57:15;99586.39;;;26.38;35.07
81990;BME280;71485;51.638;-0.182;2023-07-28T07:59:42;99586.70;;;26.17;34.99
81990;BME280;71485;51.638;-0.182;2023-07-28T08:02:06;99590.02;;;26.20;34.98
81990;BME280;71485;51.638;-0.182;2023-07-28T08:04:32;99586.72;;;26.10;35.66
81990;BME280;71485;51.638;-0.182;2023-07-28T08:06:57;99586.57;;;26.10;36.40
81990;BME280;71485;51.638;-0.182;2023-07-28T08:09:22;99589.92;;;26.11;37.14
81990;BME280;71485;51.638;-0.182;2023-07-28T08:11:48;99593.69;;;26.17;38.34
81990;BME280;71485;51.638;-0.182;2023-07-28T08:14:15;99594.43;;;26.32;37.75
81990;BME280;71485;51.638;-0.182;2023-07-28T08:16:41;99594.25;;;26.22;37.56
81990;BME280;71485;51.638;-0.182;2023-07-28T08:19:05;99594.64;;;26.59;37.50
81990;BME280;71485;51.638;-0.182;2023-07-28T08:21:31;99593.89;;;26.55;37.00
81990;BME280;71485;51.638;-0.182;2023-07-28T08:23:56;99596.49;;;26.60;36.62
81990;BME280;71485;51.638;-0.182;2023-07-28T08:26:23;99595.91;;;26.92;36.49
81990;BME280;71485;51.638;-0.182;2023-07-28T08:28:48;99598.56;;;26.38;36.44
81990;BME280;71485;51.638;-0.182;2023-07-28T08:31:14;99596.56;;;26.69;36.14
81990;BME280;71485;51.638;-0.182;2023-07-28T08:33:38;99594.88;;;26.42;35.93
81990;BME280;71485;51.638;-0.182;2023-07-28T08:36:04;99593.20;;;26.31;35.87
81990;BME280;71485;51.638;-0.182;2023-07-28T08:38:30;99592.71;;;26.37;35.67
81990;BME280;71485;51.638;-0.182;2023-07-28T08:40:56;99596.61;;;26.41;35.46
81990;BME280;71485;51.638;-0.182;2023-07-28T08:43:20;99599.31;;;26.61;35.43
81990;BME280;71485;51.638;-0.182;2023-07-28T08:45:45;99599.36;;;26.35;35.36
81990;BME280;71485;51.638;-0.182;2023-07-28T08:48:11;99602.22;;;26.52;35.39
81990;BME280;71485;51.638;-0.182;2023-07-28T08:50:37;99607.23;;;26.59;35.20
81990;BME280;71485;51.638;-0.182;2023-07-28T08:53:03;99607.07;;;26.85;35.05
81990;BME280;71485;51.638;-0.182;2023-07-28T08:55:27;99603.61;;;26.46;35.09
81990;BME280;71485;51.638;-0.182;2023-07-28T08:57:53;99600.00;;;26.29;35.00
81990;BME280;71485;51.638;-0.182;2023-07-28T09:00:21;99598.23;;;26.31;35.09
81990;BME280;71485;51.638;-0.182;2023-07-28T09:02:44;99597.72;;;26.31;34.89
81990;BME280;71485;51.638;-0.182;2023-07-28T09:05:18;99597.10;;;26.38;34.74
81990;BME280;71485;51.638;-0.182;2023-07-28T09:07:36;99595.92;;;26.52;34.78
81990;BME280;71485;51.638;-0.182;2023-07-28T09:10:01;99599.36;;;26.33;34.93
81990;BME280;71485;51.638;-0.182;2023-07-28T09:12:26;99603.60;;;26.50;34.97
81990;BME280;71485;51.638;-0.182;2023-07-28T09:14:56;99600.52;;;26.79;34.83
81990;BME280;71485;51.638;-0.182;2023-07-28T09:17:17;99600.98;;;26.48;34.82
81990;BME280;71485;51.638;-0.182;2023-07-28T09:19:50;99603.55;;;26.28;34.75
81990;BME280;71485;51.638;-0.182;2023-07-28T09:22:09;99602.58;;;26.03;34.78
81990;BME280;71485;51.638;-0.182;2023-07-28T09:24:34;99604.70;;;26.23;34.86
81990;BME280;71485;51.638;-0.182;2023-07-28T09:27:01;99605.08;;;26.49;34.86
81990;BME280;71485;51.638;-0.182;2023-07-28T09:29:26;99605.71;;;26.26;34.82
81990;BME280;71485;51.638;-0.182;2023-07-28T09:31:50;99601.45;;;26.20;34.89
81990;BME280;71485;51.638;-0.182;2023-07-28T09:34:23;99600.35;;;26.43;34.86
81990;BME280;71485;51.638;-0.182;2023-07-28T09:36:42;99604.43;;;26.16;34.94
81990;BME280;71485;51.638;-0.182;2023-07-28T09:39:08;99606.62;;;26.34;35.05
81990;BME280;71485;51.638;-0.182;2023-07-28T09:41:34;99607.70;;;26.46;34.87
81990;BME280;71485;51.638;-0.182;2023-07-28T09:43:59;99606.45;;;26.73;34.84
81990;BME280;71485;51.638;-0.182;2023-07-28T09:46:24;99604.72;;;26.52;34.82
81990;BME280;71485;51.638;-0.182;2023-07-28T09:48:52;99600.70;;;26.18;34.95
81990;BME280;71485;51.638;-0.182;2023-07-28T09:51:18;99600.56;;;26.28;34.85
81990;BME280;71485;51.638;-0.182;2023-07-28T09:53:45;99602.11;;;26.23;34.93
81990;BME280;71485;51.638;-0.182;2023-07-28T09:56:07;99601.20;;;26.32;34.85
81990;BME280;71485;51.638;-0.182;2023-07-28T09:58:37;99606.04;;;26.41;34.74
81990;BME280;71485;51.638;-0.182;2023-07-28T10:00:58;99608.27;;;26.38;34.76
81990;BME280;71485;51.638;-0.182;2023-07-28T10:03:22;99608.47;;;26.53;34.81
81990;BME280;71485;51.638;-0.182;2023-07-28T10:05:49;99610.57;;;26.53;34.76
81990;BME280;71485;51.638;-0.182;2023-07-28T10:08:14;99610.93;;;26.32;34.70
81990;BME280;71485;51.638;-0.182;2023-07-28T10:10:40;99613.02;;;26.31;34.68
81990;BME280;71485;51.638;-0.182;2023-07-28T10:13:05;99612.63;;;26.52;34.67
81990;BME280;71485;51.638;-0.182;2023-07-28T10:15:32;99611.46;;;26.29;34.63
81990;BME280;71485;51.638;-0.182;2023-07-28T10:17:57;99611.87;;;26.24;34.66
81990;BME280;71485;51.638;-0.182;2023-07-28T10:20:29;99614.66;;;26.11;34.81
81990;BME280;71485;51.638;-0.182;2023-07-28T10:22:47;99616.97;;;26.18;34.68
81990;BME280;71485;51.638;-0.182;2023-07-28T10:25:13;99619.13;;;26.20;34.58
81990;BME280;71485;51.638;-0.182;2023-07-28T10:27:45;99619.24;;;26.56;34.75
81990;BME280;71485;51.638;-0.182;2023-07-28T10:30:07;99624.35;;;26.06;34.79
81990;BME280;71485;51.638;-0.182;2023-07-28T10:32:29;99623.32;;;26.39;34.66
81990;BME280;71485;51.638;-0.182;2023-07-28T10:35:00;99623.48;;;26.38;34.64
81990;BME280;71485;51.638;-0.182;2023-07-28T10:37:23;99623.71;;;26.29;34.73
81990;BME280;71485;51.638;-0.182;2023-07-28T10:39:46;99623.38;;;26.05;34.74
81990;BME280;71485;51.638;-0.182;2023-07-28T10:42:11;99623.88;;;26.23;34.82
81990;BME280;71485;51.638;-0.182;2023-07-28T10:44:37;99624.72;;;26.53;34.73
81990;BME280;71485;51.638;-0.182;2023-07-28T10:47:04;99623.32;;;26.25;34.79
81990;BME280;71485;51.638;-0.182;2023-07-28T10:49:29;99622.99;;;26.35;34.63
81990;BME280;71485;51.638;-0.182;2023-07-28T10:51:53;99619.73;;;26.27;34.71
81990;BME280;71485;51.638;-0.182;2023-07-28T10:54:19;99620.60;;;26.13;34.60
81990;BME280;71485;51.638;-0.182;2023-07-28T10:56:45;99620.09;;;26.02;34.75
81990;BME280;71485;51.638;-0.182;2023-07-28T10:59:11;99620.52;;;26.26;34.93
81990;BME280;71485;51.638;-0.182;2023-07-28T11:01:37;99620.36;;;26.02;35.07
81990;BME280;71485;51.638;-0.182;2023-07-28T11:04:09;99620.76;;;26.25;35.58
81990;BME280;71485;51.638;-0.182;2023-07-28T11:06:26;99619.71;;;26.13;35.27
81990;BME280;71485;51.638;-0.182;2023-07-28T11:08:53;99624.38;;;26.37;35.08
81990;BME280;71485;51.638;-0.182;2023-07-28T11:11:17;99626.36;;;25.95;35.22
81990;BME280;71485;51.638;-0.182;2023-07-28T11:13:47;99630.94;;;25.91;35.29
81990;BME280;71485;51.638;-0.182;2023-07-28T11:16:08;99630.81;;;26.23;35.19
81990;BME280;71485;51.638;-0.182;2023-07-28T11:18:34;99638.36;;;26.15;35.38
81990;BME280;71485;51.638;-0.182;2023-07-28T11:20:59;99642.48;;;25.94;35.32
81990;BME280;71485;51.638;-0.182;2023-07-28T11:23:25;99639.92;;;26.17;35.50
81990;BME280;71485;51.638;-0.182;2023-07-28T11:25:56;99640.01;;;26.45;35.43
81990;BME280;71485;51.638;-0.182;2023-07-28T11:28:19;99640.24;;;26.19;35.50
81990;BME280;71485;51.638;-0.182;2023-07-28T11:30:43;99638.33;;;25.95;35.50
81990;BME280;71485;51.638;-0.182;2023-07-28T11:33:09;99640.39;;;26.25;35.71
81990;BME280;71485;51.638;-0.182;2023-07-28T11:35:33;99635.70;;;26.27;35.67
81990;BME280;71485;51.638;-0.182;2023-07-28T11:37:59;99637.54;;;26.05;35.70
81990;BME280;71485;51.638;-0.182;2023-07-28T11:40:26;99634.63;;;26.29;35.69
81990;BME280;71485;51.638;-0.182;2023-07-28T11:42:51;99634.97;;;26.21;35.47
81990;BME280;71485;51.638;-0.182;2023-07-28T11:45:16;99630.10;;;26.48;35.52
81990;BME280;71485;51.638;-0.182;2023-07-28T11:47:51;99628.52;;;26.30;35.80
81990;BME280;71485;51.638;-0.182;2023-07-28T11:50:07;99628.94;;;26.37;35.67
81990;BME280;71485;51.638;-0.182;2023-07-28T11:52:33;99626.54;;;26.25;35.62
81990;BME280;71485;51.638;-0.182;2023-07-28T11:54:58;99624.51;;;26.54;35.71
81990;BME280;71485;51.638;-0.182;2023-07-28T11:57:24;99625.66;;;26.51;35.79
81990;BME280;71485;51.638;-0.182;2023-07-28T11:59:48;99626.86;;;26.31;35.75
81990;BME280;71485;51.638;-0.182;2023-07-28T12:02:14;99628.57;;;26.63;35.66
81990;BME280;71485;51.638;-0.182;2023-07-28T12:04:40;99625.96;;;26.49;35.69
81990;BME280;71485;51.638;-0.182;2023-07-28T12:07:07;99624.88;;;26.50;35.69
81990;BME280;71485;51.638;-0.182;2023-07-28T12:09:30;99624.66;;;26.37;35.48
81990;BME280;71485;51.638;-0.182;2023-07-28T12:11:57;99621.71;;;26.31;35.62
81990;BME280;71485;51.638;-0.182;2023-07-28T12:14:34;99624.49;;;26.38;35.46
81990;BME280;71485;51.638;-0.182;2023-07-28T12:16:47;99625.58;;;26.45;35.26
81990;BME280;71485;51.638;-0.182;2023-07-28T12:19:12;99627.68;;;26.30;35.37
81990;BME280;71485;51.638;-0.182;2023-07-28T12:21:39;99627.90;;;26.82;35.43
81990;BME280;71485;51.638;-0.182;2023-07-28T12:24:04;99630.10;;;26.37;35.43
81990;BME280;71485;51.638;-0.182;2023-07-28T12:26:29;99628.34;;;26.58;35.44
81990;BME280;71485;51.638;-0.182;2023-07-28T12:28:54;99626.37;;;26.56;35.32
81990;BME280;71485;51.638;-0.182;2023-07-28T12:31:20;99630.36;;;26.53;35.51
81990;BME280;71485;51.638;-0.182;2023-07-28T12:33:45;99633.18;;;26.26;35.35
81990;BME280;71485;51.638;-0.182;2023-07-28T12:36:11;99635.27;;;26.15;35.36
81990;BME280;71485;51.638;-0.182;2023-07-28T12:38:38;99635.98;;;26.23;35.19
81990;BME280;71485;51.638;-0.182;2023-07-28T12:41:02;99639.57;;;26.23;35.25
81990;BME280;71485;51.638;-0.182;2023-07-28T12:43:28;99640.41;;;25.12;37.21
81990;BME280;71485;51.638;-0.182;2023-07-28T12:45:54;99639.58;;;27.45;34.45
81990;BME280;71485;51.638;-0.182;2023-07-28T12:48:22;99641.60;;;30.13;30.86
81990;BME280;71485;51.638;-0.182;2023-07-28T12:50:45;99642.60;;;32.63;28.03
81990;BME280;71485;51.638;-0.182;2023-07-28T12:53:10;99632.18;;;34.50;26.21
81990;BME280;71485;51.638;-0.182;2023-07-28T12:55:35;99629.16;;;35.50;24.32
81990;BME280;71485;51.638;-0.182;2023-07-28T12:58:01;99630.11;;;29.70;29.19
81990;BME280;71485;51.638;-0.182;2023-07-28T13:00:26;99629.00;;;27.93;31.77
81990;BME280;71485;51.638;-0.182;2023-07-28T13:02:52;99628.19;;;27.47;32.78
81990;BME280;71485;51.638;-0.182;2023-07-28T13:05:17;99627.39;;;27.34;33.13
81990;BME280;71485;51.638;-0.182;2023-07-28T13:07:43;99624.53;;;27.50;33.35
81990;BME280;71485;51.638;-0.182;2023-07-28T13:10:10;99620.24;;;27.40;33.69